Terminal Aerodrome Forecast
Issued by NWS

Current Version | Previous Version | Text Only | Print | Product List | Glossary On
Versions: 1 2 3 4 5 6 7 8 9 10 11 12 13 14 15 16 17 18
000
FTUS41 KILN 310500
TAFLUK
TAF
KLUK 310532Z 3106/0106 00000KT 3SM -SHRA BR OVC040
     FM310900 19003KT 2SM -SHRA BR OVC020
     FM311200 19003KT 1 1/2SM -SHRA BR OVC015
     FM311300 19004KT 1 1/2SM -SHRA BR OVC009
     FM311500 20005KT 2SM -SHRA BR VCTS OVC009CB
     FM311700 20007KT P6SM VCTS BKN015CB
     FM312200 21006KT P6SM BKN035
     FM010300 00000KT 5SM BR BKN035=

USA.gov is the U.S. government's official web portal to all federal, state and local government web resources and services.